KSPS/SPS METAR and TAF weather

Enter ICAO airport designator
Station Type Date Time Source
KSPS METAR 2021/08/04 18:52 UTC NOAA

KSPS 041852Z VRB04KT 9SM SCT060 31/18 A3006 RMK AO2 SLP165 T03110178


Station Type Date Time Source
KSPS Decoded METAR 2021/08/04 18:52 UTC NOAA

WICHITA FALLS SHEPPARD AFB, TX, United States (KSPS) 33-59N 98-30W 308M
Aug 04, 2021 - 02:52 PM EDT / 2021.08.04 1852 UTC
Wind: Variable at 5 MPH (4 KT):0
Visibility: 9 mile(s):0
Sky conditions: partly cloudy
Temperature: 88.0 F (31.1 C)
Dew Point: 64.0 F (17.8 C)
Relative Humidity: 45%
Pressure (altimeter): 30.06 in. Hg (1017 hPa)
ob: KSPS 041852Z VRB04KT 9SM SCT060 31/18 A3006 RMK AO2 SLP165 T03110178
cycle: 19

Station Type Date Time Source
KSPS TAF 2021/08/04 18:42 UTC NOAA

TAF KSPS 041739Z 0418/0518 14006KT P6SM SCT060 BKN250
FM051000 18008KT P6SM BKN100 BKN250

Example: see airport list